AirNav   Everest Fuels
 
 815 users online  

CN38 Flying B Ranch Airport
Franklin, California, USA

GOING TO FRANKLIN?


FAA INFORMATION EFFECTIVE 26 MARCH 2020

Location

FAA Identifier: CN38
Lat/Long: 38-20-28.6830N 121-26-14.8280W
38-20.478050N 121-26.247133W
38.3413008,-121.4374522
(estimated)
Elevation: 19 ft. / 6 m (estimated)
Variation: 16E (1985)
From city: 3 miles SE of FRANKLIN, CA
Time zone: UTC -7 (UTC -8 during Standard Time)
Zip code: 95758

Airport Operations

Airport use: Private use. Permission required prior to landing
Activation date: 08/1966
Control tower: no
ARTCC: OAKLAND CENTER
FSS: RANCHO MURIETA FLIGHT SERVICE STATION
Attendance: UNATNDD
Wind indicator: yes
Segmented circle: no

Airport Communications

WX ASOS at SAC (11 nm N): PHONE 916-421-0923
WX AWOS-3 at MHR (14 nm NE): 118.325 (916-366-3371)
WX AWOS-AV at O88 (15 nm SW): 127.075 (707-374-5396)
WX AWOS-3 at MCC (20 nm N): 125.975 (916-641-1272)
WX AWOS-3 at EDU (20 nm NW): 119.025 (530-754-6839)

Nearby radio navigation aids

VOR radial/distance  VOR name  Freq  Var
SACr122/8.2SACRAMENTO VORTAC115.2017E
MCCr168/19.6MC CLELLAN VOR/DME109.2017E
LINr291/26.0LINDEN VOR/DME114.8017E
CCRr041/33.7CONCORD VOR/DME117.0017E
HNWr218/39.7HANGTOWN VOR/DME115.5017E

Airport Services

Airframe service: NONE
Powerplant service: NONE

Runway Information

Runway 14/32

Dimensions: 1385 x 50 ft. / 422 x 15 m
Surface: turf
RUNWAY 14  RUNWAY 32
Traffic pattern: leftleft
Obstructions: 4 ft. fence, 40 ft. from runwayroad, 50 ft. from runway
PLINE S OF RWY 32 APRX 800' AWAY.

Airport Ownership and Management from official FAA records

Ownership: Privately-owned
Owner: JOSEPH L. HERREN
5751 POINT PLEASANT ROAD
ELK GROVE, CA 95758
Phone 916-684-2203

Airport Operational Statistics

Aircraft based on the field: 2
Single engine airplanes: 2
    

Additional Remarks

FOR CD CTC NORCAL APCH AT 916-361-6874.

Instrument Procedures

There are no published instrument procedures at CN38.

Some nearby airports with instrument procedures:

KSAC - Sacramento Executive Airport (11 nm N)
1O3 - Lodi Airport (12 nm SE)
KMHR - Sacramento Mather Airport (14 nm NE)
O88 - Rio Vista Municipal Airport (15 nm SW)
KMCC - Mc Clellan Airfield (20 nm N)
KEDU - University Airport (20 nm NW)
 
Loc | Ops | Rwys | IFR | FBO | Links
Com | Nav | Svcs | Stats | Notes
Area around CN38 (Flying B Ranch Airport)
 
Road maps at: MapQuest Bing Google
 
Aerial photo
No photo
 
Sectional chart

 
Airport distance calculator
Flying to Flying B Ranch Airport? Find the distance to fly.

From to CN38

Sunrise and sunset
Times for 03-Apr-2020
 Local
(UTC-7)
 Zulu
(UTC)
Morning civil twilight06:2013:20
Sunrise06:4713:47
Sunset19:3102:31
Evening civil twilight19:5702:57

Current date and time
Zulu (UTC)  03-Apr-2020 23:18:40
Local (UTC-7)  03-Apr-2020 16:18:40
 
METAR
KSAC 
10nm N 
032253Z VRB04KT 10SM CLR 20/M02 A2996 RMK AO2 SLP145 T02001022
KMHR 
14nm NE 
032246Z 19003KT 10SM SKC 19/02 A2996 RMK PRESFR
KMCC 
20nm N 
032255Z AUTO 00000KT 10SM CLR 18/M00 A2996 RMK AO2
KEDU 
20nm NW 
032255Z AUTO 09003KT 10SM CLR 19/M02 A2997 RMK AO1
TAF
KSAC 
10nm N 
031732Z 0318/0418 25005KT P6SM SCT250 FM040600 17006KT P6SM BKN100 FM041600 18010KT P6SM -RA OVC025
KMHR 
14nm NE 
031732Z 0318/0418 VRB05KT P6SM SCT250 FM040600 15006KT P6SM BKN100 FM041600 16009KT P6SM -RA OVC025
KMCC 
20nm N 
031732Z 0318/0418 VRB05KT P6SM SCT250 FM040600 16007KT P6SM BKN100 FM041600 15009KT P6SM -RA OVC025
NOTAMs
Click for the latest NOTAMs
NOTAMs are issued by the DoD/FAA and will open in a separate window not controlled by AirNav.

 

 
 

Would you like to see your business listed on this page?

 If your business provides an interesting product or service to pilots, flight crews, aircraft, or users of the Flying B Ranch Airport, you should consider listing it here.  To start the listing process, click on the button below
 
Add a business
 

Other Pages about Flying B Ranch Airport

Update a link
 
Copyright © AirNav, LLC. All rights reserved. Privacy Policy  Contact